sensor_id;sensor_type;location;lat;lon;timestamp;pressure;altitude;pressure_sealevel;temperature
44429;BMP180;30134;47.866;-4.222;2024-03-25T00:01:56;100404.00;;;23.50
44429;BMP180;30134;47.866;-4.222;2024-03-25T00:04:42;100409.00;;;23.50
44429;BMP180;30134;47.866;-4.222;2024-03-25T00:07:28;100401.00;;;23.50
44429;BMP180;30134;47.866;-4.222;2024-03-25T00:10:14;100389.00;;;23.50
44429;BMP180;30134;47.866;-4.222;2024-03-25T00:13:01;100379.00;;;23.40
44429;BMP180;30134;47.866;-4.222;2024-03-25T00:15:47;100366.00;;;23.50
44429;BMP180;30134;47.866;-4.222;2024-03-25T00:18:33;100362.00;;;23.40
44429;BMP180;30134;47.866;-4.222;2024-03-25T00:21:19;100365.00;;;23.40
44429;BMP180;30134;47.866;-4.222;2024-03-25T00:24:05;100355.00;;;23.40
44429;BMP180;30134;47.866;-4.222;2024-03-25T00:26:51;100349.00;;;23.50
44429;BMP180;30134;47.866;-4.222;2024-03-25T00:29:38;100348.00;;;23.50
44429;BMP180;30134;47.866;-4.222;2024-03-25T00:32:26;100339.00;;;23.40
44429;BMP180;30134;47.866;-4.222;2024-03-25T00:35:13;100335.00;;;23.50
44429;BMP180;30134;47.866;-4.222;2024-03-25T00:37:59;100326.00;;;23.50
44429;BMP180;30134;47.866;-4.222;2024-03-25T00:40:46;100317.00;;;23.50
44429;BMP180;30134;47.866;-4.222;2024-03-25T00:43:32;100313.00;;;23.60
44429;BMP180;30134;47.866;-4.222;2024-03-25T00:46:18;100313.00;;;23.60
44429;BMP180;30134;47.866;-4.222;2024-03-25T00:49:04;100300.00;;;23.60
44429;BMP180;30134;47.866;-4.222;2024-03-25T00:51:51;100302.00;;;23.50
44429;BMP180;30134;47.866;-4.222;2024-03-25T00:54:38;100288.00;;;23.50
44429;BMP180;30134;47.866;-4.222;2024-03-25T00:57:24;100284.00;;;23.50
44429;BMP180;30134;47.866;-4.222;2024-03-25T01:00:10;100275.00;;;23.50
44429;BMP180;30134;47.866;-4.222;2024-03-25T01:02:57;100259.00;;;23.50
44429;BMP180;30134;47.866;-4.222;2024-03-25T01:05:43;100251.00;;;23.40
44429;BMP180;30134;47.866;-4.222;2024-03-25T01:08:29;100244.00;;;23.40
44429;BMP180;30134;47.866;-4.222;2024-03-25T01:11:15;100234.00;;;23.40
44429;BMP180;30134;47.866;-4.222;2024-03-25T01:14:01;100237.00;;;23.60
44429;BMP180;30134;47.866;-4.222;2024-03-25T01:16:47;100232.00;;;23.50
44429;BMP180;30134;47.866;-4.222;2024-03-25T01:19:33;100225.00;;;23.50
44429;BMP180;30134;47.866;-4.222;2024-03-25T01:22:19;100227.00;;;23.70
44429;BMP180;30134;47.866;-4.222;2024-03-25T01:25:06;100209.00;;;23.60
44429;BMP180;30134;47.866;-4.222;2024-03-25T01:27:55;100199.00;;;23.50
44429;BMP180;30134;47.866;-4.222;2024-03-25T01:30:41;100195.00;;;23.50
44429;BMP180;30134;47.866;-4.222;2024-03-25T01:33:28;100192.00;;;23.50
44429;BMP180;30134;47.866;-4.222;2024-03-25T01:36:14;100191.00;;;23.50
44429;BMP180;30134;47.866;-4.222;2024-03-25T01:39:03;100180.00;;;23.50
44429;BMP180;30134;47.866;-4.222;2024-03-25T01:41:50;100176.00;;;23.60
44429;BMP180;30134;47.866;-4.222;2024-03-25T01:44:37;100178.00;;;23.60
44429;BMP180;30134;47.866;-4.222;2024-03-25T01:47:23;100181.00;;;23.60
44429;BMP180;30134;47.866;-4.222;2024-03-25T01:50:09;100176.00;;;23.50
44429;BMP180;30134;47.866;-4.222;2024-03-25T01:52:56;100169.00;;;23.50
44429;BMP180;30134;47.866;-4.222;2024-03-25T01:55:42;100163.00;;;23.50
44429;BMP180;30134;47.866;-4.222;2024-03-25T01:58:28;100156.00;;;23.50
44429;BMP180;30134;47.866;-4.222;2024-03-25T02:01:17;100147.00;;;23.60
44429;BMP180;30134;47.866;-4.222;2024-03-25T02:04:03;100138.00;;;23.50
44429;BMP180;30134;47.866;-4.222;2024-03-25T02:06:50;100135.00;;;23.60
44429;BMP180;30134;47.866;-4.222;2024-03-25T02:09:40;100128.00;;;23.60
44429;BMP180;30134;47.866;-4.222;2024-03-25T02:12:26;100114.00;;;23.60
44429;BMP180;30134;47.866;-4.222;2024-03-25T02:15:12;100113.00;;;23.70
44429;BMP180;30134;47.866;-4.222;2024-03-25T02:17:59;100101.00;;;23.60
44429;BMP180;30134;47.866;-4.222;2024-03-25T02:20:45;100097.00;;;23.60
44429;BMP180;30134;47.866;-4.222;2024-03-25T02:23:31;100095.00;;;23.60
44429;BMP180;30134;47.866;-4.222;2024-03-25T02:26:20;100078.00;;;23.70
44429;BMP180;30134;47.866;-4.222;2024-03-25T02:29:09;100068.00;;;23.70
44429;BMP180;30134;47.866;-4.222;2024-03-25T02:31:55;100061.00;;;23.70
44429;BMP180;30134;47.866;-4.222;2024-03-25T02:34:47;100046.00;;;23.60
44429;BMP180;30134;47.866;-4.222;2024-03-25T02:37:33;100040.00;;;23.80
44429;BMP180;30134;47.866;-4.222;2024-03-25T02:40:20;100021.00;;;24.50
44429;BMP180;30134;47.866;-4.222;2024-03-25T02:43:10;100020.00;;;23.90
44429;BMP180;30134;47.866;-4.222;2024-03-25T02:45:59;100004.00;;;23.70
44429;BMP180;30134;47.866;-4.222;2024-03-25T02:48:46;99994.00;;;23.70
44429;BMP180;30134;47.866;-4.222;2024-03-25T02:51:32;99991.00;;;23.70
44429;BMP180;30134;47.866;-4.222;2024-03-25T02:54:18;99987.00;;;23.60
44429;BMP180;30134;47.866;-4.222;2024-03-25T02:57:05;99977.00;;;23.70
44429;BMP180;30134;47.866;-4.222;2024-03-25T02:59:51;99983.00;;;23.70
44429;BMP180;30134;47.866;-4.222;2024-03-25T03:02:37;99971.00;;;23.60
44429;BMP180;30134;47.866;-4.222;2024-03-25T03:05:23;99966.00;;;23.70
44429;BMP180;30134;47.866;-4.222;2024-03-25T03:08:09;99961.00;;;23.70
44429;BMP180;30134;47.866;-4.222;2024-03-25T03:10:55;99959.00;;;23.70
44429;BMP180;30134;47.866;-4.222;2024-03-25T03:13:41;99948.00;;;23.60
44429;BMP180;30134;47.866;-4.222;2024-03-25T03:16:28;99943.00;;;23.70
44429;BMP180;30134;47.866;-4.222;2024-03-25T03:19:15;99936.00;;;23.70
44429;BMP180;30134;47.866;-4.222;2024-03-25T03:22:01;99925.00;;;23.70
44429;BMP180;30134;47.866;-4.222;2024-03-25T03:24:48;99914.00;;;23.60
44429;BMP180;30134;47.866;-4.222;2024-03-25T03:27:34;99907.00;;;23.70
44429;BMP180;30134;47.866;-4.222;2024-03-25T03:30:20;99896.00;;;23.60
44429;BMP180;30134;47.866;-4.222;2024-03-25T03:33:06;99897.00;;;23.70
44429;BMP180;30134;47.866;-4.222;2024-03-25T03:35:52;99895.00;;;23.60
44429;BMP180;30134;47.866;-4.222;2024-03-25T03:38:38;99891.00;;;23.60
44429;BMP180;30134;47.866;-4.222;2024-03-25T03:41:24;99882.00;;;23.70
44429;BMP180;30134;47.866;-4.222;2024-03-25T03:44:10;99871.00;;;23.70
44429;BMP180;30134;47.866;-4.222;2024-03-25T03:46:58;99871.00;;;23.70
44429;BMP180;30134;47.866;-4.222;2024-03-25T03:49:44;99865.00;;;23.70
44429;BMP180;30134;47.866;-4.222;2024-03-25T03:52:30;99849.00;;;23.70
44429;BMP180;30134;47.866;-4.222;2024-03-25T03:55:16;99844.00;;;23.60
44429;BMP180;30134;47.866;-4.222;2024-03-25T03:58:02;99834.00;;;23.60
44429;BMP180;30134;47.866;-4.222;2024-03-25T04:00:49;99828.00;;;23.70
44429;BMP180;30134;47.866;-4.222;2024-03-25T04:03:36;99826.00;;;23.80
44429;BMP180;30134;47.866;-4.222;2024-03-25T04:06:22;99825.00;;;23.80
44429;BMP180;30134;47.866;-4.222;2024-03-25T04:09:08;99811.00;;;23.70
44429;BMP180;30134;47.866;-4.222;2024-03-25T04:11:55;99809.00;;;23.70
44429;BMP180;30134;47.866;-4.222;2024-03-25T04:14:42;99803.00;;;23.60
44429;BMP180;30134;47.866;-4.222;2024-03-25T04:17:28;99807.00;;;23.70
44429;BMP180;30134;47.866;-4.222;2024-03-25T04:20:15;99802.00;;;23.70
44429;BMP180;30134;47.866;-4.222;2024-03-25T04:23:08;99789.00;;;23.70
44429;BMP180;30134;47.866;-4.222;2024-03-25T04:25:54;99780.00;;;23.60
44429;BMP180;30134;47.866;-4.222;2024-03-25T04:28:40;99775.00;;;23.70
44429;BMP180;30134;47.866;-4.222;2024-03-25T04:31:26;99775.00;;;23.70
44429;BMP180;30134;47.866;-4.222;2024-03-25T04:34:13;99755.00;;;23.70
44429;BMP180;30134;47.866;-4.222;2024-03-25T04:36:59;99741.00;;;23.70
44429;BMP180;30134;47.866;-4.222;2024-03-25T04:39:45;99739.00;;;23.70
44429;BMP180;30134;47.866;-4.222;2024-03-25T04:42:32;99747.00;;;23.70
44429;BMP180;30134;47.866;-4.222;2024-03-25T04:45:18;99739.00;;;23.70
44429;BMP180;30134;47.866;-4.222;2024-03-25T04:48:05;99737.00;;;23.80
44429;BMP180;30134;47.866;-4.222;2024-03-25T04:50:51;99736.00;;;23.70
44429;BMP180;30134;47.866;-4.222;2024-03-25T04:53:37;99728.00;;;23.70
44429;BMP180;30134;47.866;-4.222;2024-03-25T04:56:23;99723.00;;;23.70
44429;BMP180;30134;47.866;-4.222;2024-03-25T04:59:10;99712.00;;;23.60
44429;BMP180;30134;47.866;-4.222;2024-03-25T05:01:56;99709.00;;;23.70
44429;BMP180;30134;47.866;-4.222;2024-03-25T05:04:42;99699.00;;;23.70
44429;BMP180;30134;47.866;-4.222;2024-03-25T05:07:28;99699.00;;;23.70
44429;BMP180;30134;47.866;-4.222;2024-03-25T05:10:14;99691.00;;;23.70
44429;BMP180;30134;47.866;-4.222;2024-03-25T05:13:01;99682.00;;;23.60
44429;BMP180;30134;47.866;-4.222;2024-03-25T05:15:51;99690.00;;;23.70
44429;BMP180;30134;47.866;-4.222;2024-03-25T05:18:37;99682.00;;;23.70
44429;BMP180;30134;47.866;-4.222;2024-03-25T05:21:24;99673.00;;;23.80
44429;BMP180;30134;47.866;-4.222;2024-03-25T05:24:11;99678.00;;;23.70
44429;BMP180;30134;47.866;-4.222;2024-03-25T05:26:57;99672.00;;;23.70
44429;BMP180;30134;47.866;-4.222;2024-03-25T05:29:43;99664.00;;;23.70
44429;BMP180;30134;47.866;-4.222;2024-03-25T05:32:30;99670.00;;;23.60
44429;BMP180;30134;47.866;-4.222;2024-03-25T05:35:16;99672.00;;;23.70
44429;BMP180;30134;47.866;-4.222;2024-03-25T05:38:03;99663.00;;;23.70
44429;BMP180;30134;47.866;-4.222;2024-03-25T05:40:49;99672.00;;;23.80
44429;BMP180;30134;47.866;-4.222;2024-03-25T05:43:36;99666.00;;;23.60
44429;BMP180;30134;47.866;-4.222;2024-03-25T05:46:23;99667.00;;;23.70
44429;BMP180;30134;47.866;-4.222;2024-03-25T05:49:09;99667.00;;;23.70
44429;BMP180;30134;47.866;-4.222;2024-03-25T05:51:56;99663.00;;;23.70
44429;BMP180;30134;47.866;-4.222;2024-03-25T05:54:42;99664.00;;;23.70
44429;BMP180;30134;47.866;-4.222;2024-03-25T05:57:28;99653.00;;;23.70
44429;BMP180;30134;47.866;-4.222;2024-03-25T06:00:15;99642.00;;;23.70
44429;BMP180;30134;47.866;-4.222;2024-03-25T06:03:01;99634.00;;;23.70
44429;BMP180;30134;47.866;-4.222;2024-03-25T06:05:48;99626.00;;;23.80
44429;BMP180;30134;47.866;-4.222;2024-03-25T06:08:35;99614.00;;;23.60
44429;BMP180;30134;47.866;-4.222;2024-03-25T06:11:23;99614.00;;;23.60
44429;BMP180;30134;47.866;-4.222;2024-03-25T06:14:09;99618.00;;;23.60
44429;BMP180;30134;47.866;-4.222;2024-03-25T06:16:56;99616.00;;;23.70
44429;BMP180;30134;47.866;-4.222;2024-03-25T06:19:42;99604.00;;;23.70
44429;BMP180;30134;47.866;-4.222;2024-03-25T06:22:29;99601.00;;;23.60
44429;BMP180;30134;47.866;-4.222;2024-03-25T06:25:15;99597.00;;;23.60
44429;BMP180;30134;47.866;-4.222;2024-03-25T06:28:02;99590.00;;;23.70
44429;BMP180;30134;47.866;-4.222;2024-03-25T06:30:49;99590.00;;;23.70
44429;BMP180;30134;47.866;-4.222;2024-03-25T06:33:54;99593.00;;;23.70
44429;BMP180;30134;47.866;-4.222;2024-03-25T06:36:59;99583.00;;;23.80
44429;BMP180;30134;47.866;-4.222;2024-03-25T06:39:46;99581.00;;;23.70
44429;BMP180;30134;47.866;-4.222;2024-03-25T06:42:32;99576.00;;;23.80
44429;BMP180;30134;47.866;-4.222;2024-03-25T06:45:19;99569.00;;;23.70
44429;BMP180;30134;47.866;-4.222;2024-03-25T06:48:05;99566.00;;;23.80
44429;BMP180;30134;47.866;-4.222;2024-03-25T06:50:54;99569.00;;;23.70
44429;BMP180;30134;47.866;-4.222;2024-03-25T06:53:41;99550.00;;;23.70
44429;BMP180;30134;47.866;-4.222;2024-03-25T06:56:27;99551.00;;;23.80
44429;BMP180;30134;47.866;-4.222;2024-03-25T06:59:14;99548.00;;;23.80
44429;BMP180;30134;47.866;-4.222;2024-03-25T07:02:01;99542.00;;;23.70
44429;BMP180;30134;47.866;-4.222;2024-03-25T07:04:47;99537.00;;;23.60
44429;BMP180;30134;47.866;-4.222;2024-03-25T07:07:34;99527.00;;;23.80
44429;BMP180;30134;47.866;-4.222;2024-03-25T07:10:21;99528.00;;;23.80
44429;BMP180;30134;47.866;-4.222;2024-03-25T07:13:07;99524.00;;;23.80
44429;BMP180;30134;47.866;-4.222;2024-03-25T07:15:54;99524.00;;;23.80
44429;BMP180;30134;47.866;-4.222;2024-03-25T07:18:41;99526.00;;;23.80
44429;BMP180;30134;47.866;-4.222;2024-03-25T07:21:28;99524.00;;;23.70
44429;BMP180;30134;47.866;-4.222;2024-03-25T07:24:21;99518.00;;;23.80
44429;BMP180;30134;47.866;-4.222;2024-03-25T07:27:14;99518.00;;;23.70
44429;BMP180;30134;47.866;-4.222;2024-03-25T07:30:03;99514.00;;;23.80
44429;BMP180;30134;47.866;-4.222;2024-03-25T07:32:52;99506.00;;;23.70
44429;BMP180;30134;47.866;-4.222;2024-03-25T07:35:39;99499.00;;;23.70
44429;BMP180;30134;47.866;-4.222;2024-03-25T07:38:25;99508.00;;;23.80
44429;BMP180;30134;47.866;-4.222;2024-03-25T07:41:11;99497.00;;;23.80
44429;BMP180;30134;47.866;-4.222;2024-03-25T07:44:05;99487.00;;;23.70
44429;BMP180;30134;47.866;-4.222;2024-03-25T07:46:51;99482.00;;;23.80
44429;BMP180;30134;47.866;-4.222;2024-03-25T07:49:38;99473.00;;;22.70
44429;BMP180;30134;47.866;-4.222;2024-03-25T07:52:26;99472.00;;;23.50
44429;BMP180;30134;47.866;-4.222;2024-03-25T07:55:13;99464.00;;;23.80
44429;BMP180;30134;47.866;-4.222;2024-03-25T07:58:01;99455.00;;;23.80
44429;BMP180;30134;47.866;-4.222;2024-03-25T08:00:47;99447.00;;;23.90
44429;BMP180;30134;47.866;-4.222;2024-03-25T08:03:34;99437.00;;;23.90
44429;BMP180;30134;47.866;-4.222;2024-03-25T08:06:20;99439.00;;;24.00
44429;BMP180;30134;47.866;-4.222;2024-03-25T08:09:07;99437.00;;;24.00
44429;BMP180;30134;47.866;-4.222;2024-03-25T08:11:55;99434.00;;;24.10
44429;BMP180;30134;47.866;-4.222;2024-03-25T08:14:42;99430.00;;;24.10
44429;BMP180;30134;47.866;-4.222;2024-03-25T08:17:29;99432.00;;;24.00
44429;BMP180;30134;47.866;-4.222;2024-03-25T08:20:16;99430.00;;;24.10
44429;BMP180;30134;47.866;-4.222;2024-03-25T08:23:03;99423.00;;;24.00
44429;BMP180;30134;47.866;-4.222;2024-03-25T08:25:49;99419.00;;;24.00
44429;BMP180;30134;47.866;-4.222;2024-03-25T08:28:36;99410.00;;;24.10
44429;BMP180;30134;47.866;-4.222;2024-03-25T08:31:22;99401.00;;;24.10
44429;BMP180;30134;47.866;-4.222;2024-03-25T08:34:09;99396.00;;;24.10
44429;BMP180;30134;47.866;-4.222;2024-03-25T08:36:55;99380.00;;;24.20
44429;BMP180;30134;47.866;-4.222;2024-03-25T08:39:41;99390.00;;;24.00
44429;BMP180;30134;47.866;-4.222;2024-03-25T08:42:28;99386.00;;;24.10
44429;BMP180;30134;47.866;-4.222;2024-03-25T08:45:14;99378.00;;;24.10
44429;BMP180;30134;47.866;-4.222;2024-03-25T08:48:01;99380.00;;;24.10
44429;BMP180;30134;47.866;-4.222;2024-03-25T08:50:47;99382.00;;;24.10
44429;BMP180;30134;47.866;-4.222;2024-03-25T08:53:34;99372.00;;;24.10
44429;BMP180;30134;47.866;-4.222;2024-03-25T08:56:20;99370.00;;;24.00
44429;BMP180;30134;47.866;-4.222;2024-03-25T08:59:07;99369.00;;;24.10
44429;BMP180;30134;47.866;-4.222;2024-03-25T09:01:55;99366.00;;;24.20
44429;BMP180;30134;47.866;-4.222;2024-03-25T09:04:42;99355.00;;;24.20
44429;BMP180;30134;47.866;-4.222;2024-03-25T09:07:28;99349.00;;;24.20
44429;BMP180;30134;47.866;-4.222;2024-03-25T09:10:15;99349.00;;;24.20
44429;BMP180;30134;47.866;-4.222;2024-03-25T09:13:20;99338.00;;;24.10
44429;BMP180;30134;47.866;-4.222;2024-03-25T09:16:07;99326.00;;;24.10
44429;BMP180;30134;47.866;-4.222;2024-03-25T09:18:53;99329.00;;;24.10
44429;BMP180;30134;47.866;-4.222;2024-03-25T09:21:40;99324.00;;;24.20
44429;BMP180;30134;47.866;-4.222;2024-03-25T09:24:26;99320.00;;;24.30
44429;BMP180;30134;47.866;-4.222;2024-03-25T09:27:13;99307.00;;;24.10
44429;BMP180;30134;47.866;-4.222;2024-03-25T09:30:00;99295.00;;;24.10
44429;BMP180;30134;47.866;-4.222;2024-03-25T09:32:46;99288.00;;;24.20
44429;BMP180;30134;47.866;-4.222;2024-03-25T09:35:34;99288.00;;;24.30
44429;BMP180;30134;47.866;-4.222;2024-03-25T09:38:20;99283.00;;;24.20
44429;BMP180;30134;47.866;-4.222;2024-03-25T09:41:08;99272.00;;;24.30
44429;BMP180;30134;47.866;-4.222;2024-03-25T09:43:54;99269.00;;;24.20
44429;BMP180;30134;47.866;-4.222;2024-03-25T09:46:43;99275.00;;;24.30
44429;BMP180;30134;47.866;-4.222;2024-03-25T09:49:30;99262.00;;;24.20
44429;BMP180;30134;47.866;-4.222;2024-03-25T09:52:18;99264.00;;;24.20
44429;BMP180;30134;47.866;-4.222;2024-03-25T09:55:05;99263.00;;;24.20
44429;BMP180;30134;47.866;-4.222;2024-03-25T09:57:51;99254.00;;;24.20
44429;BMP180;30134;47.866;-4.222;2024-03-25T10:00:38;99252.00;;;24.20
44429;BMP180;30134;47.866;-4.222;2024-03-25T10:03:28;99253.00;;;24.20
44429;BMP180;30134;47.866;-4.222;2024-03-25T10:06:14;99258.00;;;24.30
44429;BMP180;30134;47.866;-4.222;2024-03-25T10:09:04;99246.00;;;24.20
44429;BMP180;30134;47.866;-4.222;2024-03-25T10:11:51;99245.00;;;24.20
44429;BMP180;30134;47.866;-4.222;2024-03-25T10:14:39;99241.00;;;24.30
44429;BMP180;30134;47.866;-4.222;2024-03-25T10:17:26;99239.00;;;24.30
44429;BMP180;30134;47.866;-4.222;2024-03-25T10:20:15;99230.00;;;24.30
44429;BMP180;30134;47.866;-4.222;2024-03-25T10:23:02;99221.00;;;24.30
44429;BMP180;30134;47.866;-4.222;2024-03-25T10:25:52;99223.00;;;24.30
44429;BMP180;30134;47.866;-4.222;2024-03-25T10:28:38;99216.00;;;24.40
44429;BMP180;30134;47.866;-4.222;2024-03-25T10:31:25;99216.00;;;24.30
44429;BMP180;30134;47.866;-4.222;2024-03-25T10:34:11;99202.00;;;24.30
44429;BMP180;30134;47.866;-4.222;2024-03-25T10:36:58;99188.00;;;24.30
44429;BMP180;30134;47.866;-4.222;2024-03-25T10:39:49;99176.00;;;24.20
44429;BMP180;30134;47.866;-4.222;2024-03-25T10:42:39;99170.00;;;24.20
44429;BMP180;30134;47.866;-4.222;2024-03-25T10:45:30;99169.00;;;24.30
44429;BMP180;30134;47.866;-4.222;2024-03-25T10:48:17;99154.00;;;24.20
44429;BMP180;30134;47.866;-4.222;2024-03-25T10:51:06;99151.00;;;24.20
44429;BMP180;30134;47.866;-4.222;2024-03-25T10:53:54;99148.00;;;24.30
44429;BMP180;30134;47.866;-4.222;2024-03-25T10:56:42;99133.00;;;24.30
44429;BMP180;30134;47.866;-4.222;2024-03-25T10:59:28;99131.00;;;24.30
44429;BMP180;30134;47.866;-4.222;2024-03-25T11:02:15;99125.00;;;24.30
44429;BMP180;30134;47.866;-4.222;2024-03-25T11:05:04;99115.00;;;24.30
44429;BMP180;30134;47.866;-4.222;2024-03-25T11:07:52;99112.00;;;24.30
44429;BMP180;30134;47.866;-4.222;2024-03-25T11:10:56;99110.00;;;24.30
44429;BMP180;30134;47.866;-4.222;2024-03-25T11:13:43;99106.00;;;24.30
44429;BMP180;30134;47.866;-4.222;2024-03-25T11:16:30;99100.00;;;24.30
44429;BMP180;30134;47.866;-4.222;2024-03-25T11:19:17;99097.00;;;24.20
44429;BMP180;30134;47.866;-4.222;2024-03-25T11:22:08;99090.00;;;24.30
44429;BMP180;30134;47.866;-4.222;2024-03-25T11:24:55;99080.00;;;24.20
44429;BMP180;30134;47.866;-4.222;2024-03-25T11:27:42;99072.00;;;24.40
44429;BMP180;30134;47.866;-4.222;2024-03-25T11:30:29;99066.00;;;24.40
44429;BMP180;30134;47.866;-4.222;2024-03-25T11:33:17;99060.00;;;24.30
44429;BMP180;30134;47.866;-4.222;2024-03-25T11:36:04;99058.00;;;24.20
44429;BMP180;30134;47.866;-4.222;2024-03-25T11:38:57;99050.00;;;24.20
44429;BMP180;30134;47.866;-4.222;2024-03-25T11:41:44;99054.00;;;24.30
44429;BMP180;30134;47.866;-4.222;2024-03-25T11:44:31;99040.00;;;24.40
44429;BMP180;30134;47.866;-4.222;2024-03-25T11:47:17;99035.00;;;24.30
44429;BMP180;30134;47.866;-4.222;2024-03-25T11:50:07;99030.00;;;24.30
44429;BMP180;30134;47.866;-4.222;2024-03-25T11:52:54;99017.00;;;24.20
44429;BMP180;30134;47.866;-4.222;2024-03-25T11:55:40;99013.00;;;24.20
44429;BMP180;30134;47.866;-4.222;2024-03-25T11:58:27;99009.00;;;24.20
44429;BMP180;30134;47.866;-4.222;2024-03-25T12:01:14;99003.00;;;24.20
44429;BMP180;30134;47.866;-4.222;2024-03-25T12:04:10;98999.00;;;24.40
44429;BMP180;30134;47.866;-4.222;2024-03-25T12:06:56;98995.00;;;24.30
44429;BMP180;30134;47.866;-4.222;2024-03-25T12:09:43;98994.00;;;24.30
44429;BMP180;30134;47.866;-4.222;2024-03-25T12:12:48;98979.00;;;24.20
44429;BMP180;30134;47.866;-4.222;2024-03-25T12:15:36;98983.00;;;24.30
44429;BMP180;30134;47.866;-4.222;2024-03-25T12:18:23;98972.00;;;24.30
44429;BMP180;30134;47.866;-4.222;2024-03-25T12:21:09;98968.00;;;24.20
44429;BMP180;30134;47.866;-4.222;2024-03-25T12:23:56;98967.00;;;24.30
44429;BMP180;30134;47.866;-4.222;2024-03-25T12:26:44;98964.00;;;24.20
44429;BMP180;30134;47.866;-4.222;2024-03-25T12:29:31;98957.00;;;24.30
44429;BMP180;30134;47.866;-4.222;2024-03-25T12:32:17;98939.00;;;24.30
44429;BMP180;30134;47.866;-4.222;2024-03-25T12:35:10;98942.00;;;24.30
44429;BMP180;30134;47.866;-4.222;2024-03-25T12:37:56;98933.00;;;24.30
44429;BMP180;30134;47.866;-4.222;2024-03-25T12:40:43;98926.00;;;24.30
44429;BMP180;30134;47.866;-4.222;2024-03-25T12:43:33;98914.00;;;24.30
44429;BMP180;30134;47.866;-4.222;2024-03-25T12:46:19;98921.00;;;24.20
44429;BMP180;30134;47.866;-4.222;2024-03-25T12:49:06;98916.00;;;24.30
44429;BMP180;30134;47.866;-4.222;2024-03-25T12:51:52;98910.00;;;24.30
44429;BMP180;30134;47.866;-4.222;2024-03-25T12:54:39;98912.00;;;24.30
44429;BMP180;30134;47.866;-4.222;2024-03-25T12:57:27;98906.00;;;24.30
44429;BMP180;30134;47.866;-4.222;2024-03-25T13:00:14;98902.00;;;24.10
44429;BMP180;30134;47.866;-4.222;2024-03-25T13:03:00;98903.00;;;24.10
44429;BMP180;30134;47.866;-4.222;2024-03-25T13:05:48;98888.00;;;24.10
44429;BMP180;30134;47.866;-4.222;2024-03-25T13:08:35;98883.00;;;23.90
44429;BMP180;30134;47.866;-4.222;2024-03-25T13:11:21;98878.00;;;23.40
44429;BMP180;30134;47.866;-4.222;2024-03-25T13:14:10;98871.00;;;23.20
44429;BMP180;30134;47.866;-4.222;2024-03-25T13:16:57;98871.00;;;23.40
44429;BMP180;30134;47.866;-4.222;2024-03-25T13:19:43;98868.00;;;23.30
44429;BMP180;30134;47.866;-4.222;2024-03-25T13:22:30;98861.00;;;23.30
44429;BMP180;30134;47.866;-4.222;2024-03-25T13:25:18;98861.00;;;23.20
44429;BMP180;30134;47.866;-4.222;2024-03-25T13:28:05;98855.00;;;23.00
44429;BMP180;30134;47.866;-4.222;2024-03-25T13:30:51;98838.00;;;23.00
44429;BMP180;30134;47.866;-4.222;2024-03-25T13:33:38;98836.00;;;23.10
44429;BMP180;30134;47.866;-4.222;2024-03-25T13:36:25;98827.00;;;23.00
44429;BMP180;30134;47.866;-4.222;2024-03-25T13:39:12;98827.00;;;23.00
44429;BMP180;30134;47.866;-4.222;2024-03-25T13:41:58;98817.00;;;23.00
44429;BMP180;30134;47.866;-4.222;2024-03-25T13:44:44;98817.00;;;23.00
44429;BMP180;30134;47.866;-4.222;2024-03-25T13:47:31;98807.00;;;22.80
44429;BMP180;30134;47.866;-4.222;2024-03-25T13:50:18;98798.00;;;22.80
44429;BMP180;30134;47.866;-4.222;2024-03-25T13:53:08;98802.00;;;22.80
44429;BMP180;30134;47.866;-4.222;2024-03-25T13:55:55;98794.00;;;22.90
44429;BMP180;30134;47.866;-4.222;2024-03-25T13:58:41;98785.00;;;22.90
44429;BMP180;30134;47.866;-4.222;2024-03-25T14:01:28;98781.00;;;22.90
44429;BMP180;30134;47.866;-4.222;2024-03-25T14:04:14;98778.00;;;22.70
44429;BMP180;30134;47.866;-4.222;2024-03-25T14:07:01;98775.00;;;22.80
44429;BMP180;30134;47.866;-4.222;2024-03-25T14:09:48;98770.00;;;22.90
44429;BMP180;30134;47.866;-4.222;2024-03-25T14:12:34;98768.00;;;23.00
44429;BMP180;30134;47.866;-4.222;2024-03-25T14:15:21;98760.00;;;23.00
44429;BMP180;30134;47.866;-4.222;2024-03-25T14:18:07;98752.00;;;22.90
44429;BMP180;30134;47.866;-4.222;2024-03-25T14:20:55;98745.00;;;22.70
44429;BMP180;30134;47.866;-4.222;2024-03-25T14:23:43;98741.00;;;22.90
44429;BMP180;30134;47.866;-4.222;2024-03-25T14:26:29;98738.00;;;22.80
44429;BMP180;30134;47.866;-4.222;2024-03-25T14:29:16;98741.00;;;22.90
44429;BMP180;30134;47.866;-4.222;2024-03-25T14:32:02;98738.00;;;22.90
44429;BMP180;30134;47.866;-4.222;2024-03-25T14:34:49;98729.00;;;22.90
44429;BMP180;30134;47.866;-4.222;2024-03-25T14:37:36;98731.00;;;22.70
44429;BMP180;30134;47.866;-4.222;2024-03-25T14:40:22;98720.00;;;22.80
44429;BMP180;30134;47.866;-4.222;2024-03-25T14:43:08;98723.00;;;22.90
44429;BMP180;30134;47.866;-4.222;2024-03-25T14:45:55;98713.00;;;22.80
44429;BMP180;30134;47.866;-4.222;2024-03-25T14:48:41;98698.00;;;22.90
44429;BMP180;30134;47.866;-4.222;2024-03-25T14:51:28;98701.00;;;22.90
44429;BMP180;30134;47.866;-4.222;2024-03-25T14:54:14;98692.00;;;22.90
44429;BMP180;30134;47.866;-4.222;2024-03-25T14:57:01;98681.00;;;22.80
44429;BMP180;30134;47.866;-4.222;2024-03-25T14:59:47;98675.00;;;22.70
44429;BMP180;30134;47.866;-4.222;2024-03-25T15:09:11;98663.00;;;22.90
44429;BMP180;30134;47.866;-4.222;2024-03-25T15:11:58;98668.00;;;22.70
44429;BMP180;30134;47.866;-4.222;2024-03-25T15:14:45;98663.00;;;22.70
44429;BMP180;30134;47.866;-4.222;2024-03-25T15:17:32;98656.00;;;22.90
44429;BMP180;30134;47.866;-4.222;2024-03-25T15:20:18;98653.00;;;22.70
44429;BMP180;30134;47.866;-4.222;2024-03-25T15:23:04;98654.00;;;22.90
44429;BMP180;30134;47.866;-4.222;2024-03-25T15:25:52;98649.00;;;23.20
44429;BMP180;30134;47.866;-4.222;2024-03-25T15:28:39;98639.00;;;23.30
44429;BMP180;30134;47.866;-4.222;2024-03-25T15:31:26;98637.00;;;23.40
44429;BMP180;30134;47.866;-4.222;2024-03-25T15:34:12;98635.00;;;22.80
44429;BMP180;30134;47.866;-4.222;2024-03-25T15:36:58;98644.00;;;21.50
44429;BMP180;30134;47.866;-4.222;2024-03-25T15:39:45;98643.00;;;20.80
44429;BMP180;30134;47.866;-4.222;2024-03-25T15:42:33;98641.00;;;20.40
44429;BMP180;30134;47.866;-4.222;2024-03-25T15:45:19;98637.00;;;21.10
44429;BMP180;30134;47.866;-4.222;2024-03-25T15:48:06;98630.00;;;21.00
44429;BMP180;30134;47.866;-4.222;2024-03-25T15:50:52;98629.00;;;21.10
44429;BMP180;30134;47.866;-4.222;2024-03-25T15:53:40;98631.00;;;21.20